Date,TemperatureHighF,TemperatureAvgF,TemperatureLowF,DewpointHighF,DewpointAvgF,DewpointLowF,HumidityHigh,HumidityAvg,HumidityLow,PressureMaxIn,PressureMinIn,WindSpeedMaxMPH,WindSpeedAvgMPH,GustSpeedMaxMPH,PrecipitationSumIn
2013-1-1,25.7,23.1,20.3,19.6,16.0,12.2,86,74,63,30.21,30.09,20,4,20,0.00
2013-1-2,26.8,24.0,17.4,23.0,19.2,12.7,86,82,76,30.21,30.13,17,6,21,0.00
2013-1-3,30.0,25.3,18.3,26.4,21.1,12.7,91,84,76,30.22,30.10,18,7,20,0.00
2013-1-4,34.3,30.1,26.1,28.4,25.4,21.9,88,82,76,30.22,30.07,30,11,30,0.00
2013-1-5,36.1,30.7,23.4,32.5,27.2,21.4,96,87,71,30.25,29.99,17,6,18,0.00
2013-1-6,35.1,33.5,31.5,33.3,30.6,24.6,96,89,75,30.30,29.88,20,6,21,0.08
2013-1-7,36.9,30.9,25.5,27.0,23.8,19.4,89,75,52,30.36,30.14,22,8,23,0.00
2013-1-8,38.3,32.1,27.1,30.2,26.5,23.4,87,80,72,30.24,30.10,16,6,16,0.00
2013-1-9,44.1,38.8,32.7,35.1,31.5,27.0,85,75,57,30.44,30.01,36,10,38,0.00
2013-1-10,45.9,35.0,26.2,35.4,29.1,24.4,97,80,51,30.56,30.07,18,5,20,0.07
2013-1-11,52.5,46.4,36.1,52.0,45.4,35.4,99,96,90,30.07,29.72,21,9,22,0.52
2013-1-12,56.5,48.9,37.6,49.5,42.9,34.0,93,80,50,29.95,29.74,25,7,27,0.52
2013-1-13,37.6,31.8,25.2,35.2,30.0,20.7,97,93,82,30.14,29.82,22,6,23,0.22
2013-1-14,25.2,22.2,19.6,21.0,17.9,16.3,91,84,75,30.48,30.14,23,6,23,0.22
2013-1-15,30.9,23.6,17.8,21.4,18.6,15.3,92,82,65,30.49,30.19,10,3,11,0.00
2013-1-16,35.1,28.5,20.8,30.6,23.1,17.2,88,80,62,30.19,29.83,29,8,29,0.00
2013-1-17,35.1,27.6,21.2,30.0,19.4,10.9,83,71,62,30.40,30.01,26,7,26,0.00
2013-1-18,41.9,28.7,19.0,29.5,19.7,11.5,80,69,60,30.46,29.93,30,9,30,0.00
2013-1-19,45.5,42.3,39.4,37.6,33.2,22.8,78,70,51,29.93,29.61,31,13,42,0.00
2013-1-20,39.2,17.9,15.1,24.1,12.9,10.4,89,81,51,30.27,29.62,41,11,45,0.00
2013-1-21,16.0,11.0,3.7,13.1,8.3,0.7,91,89,79,30.26,30.09,25,8,27,0.00
2013-1-22,12.0,4.6,-1.1,9.0,1.5,-4.0,89,87,79,30.41,30.26,19,3,20,0.00
2013-1-23,18.1,11.1,4.1,15.1,8.3,1.2,92,88,85,30.41,30.14,20,4,20,0.00
2013-1-24,18.1,10.6,2.7,8.4,4.7,0.0,92,77,58,30.72,30.28,8,2,8,0.00
2013-1-25,21.9,18.0,12.6,20.1,13.3,4.5,93,82,69,30.55,30.04,15,5,16,0.00
2013-1-26,27.9,23.4,20.1,21.4,19.1,16.9,93,84,67,30.49,30.13,13,2,13,0.00
2013-1-27,32.7,25.9,18.9,30.7,21.6,16.7,94,84,71,30.49,30.06,25,8,26,0.00
2013-1-28,46.2,37.8,32.7,46.0,36.6,30.7,99,95,91,30.07,29.86,20,6,22,0.33
2013-1-29,55.9,47.8,34.3,55.9,47.4,32.5,100,99,93,29.99,29.38,22,8,23,1.23
2013-1-30,52.5,41.3,24.8,52.2,40.9,23.2,100,98,92,29.39,29.09,26,6,29,1.23
2013-1-31,24.8,19.0,15.4,23.5,17.0,13.8,95,92,84,30.00,29.39,26,11,28,0.65
2013-2-1,16.3,13.7,9.9,14.9,11.3,7.3,94,90,82,30.33,30.00,20,9,21,0.00
2013-2-2,18.1,14.6,7.0,15.8,10.8,3.9,93,85,74,30.26,30.07,14,5,16,0.00
2013-2-3,19.8,14.8,7.3,17.4,12.1,4.3,92,89,83,30.10,29.96,23,4,23,0.00
2013-2-4,23.5,17.9,11.1,18.3,15.1,9.1,93,89,79,30.09,29.94,10,2,11,0.00
2013-2-5,28.8,19.9,7.0,27.1,17.7,5.0,95,91,84,30.08,29.85,18,6,20,0.00
2013-2-6,34.9,25.2,11.3,23.0,19.4,9.0,96,79,60,30.32,30.08,11,3,12,0.00
2013-2-7,34.7,30.3,27.5,31.6,26.8,21.9,97,87,77,30.26,29.89,18,7,22,0.00
2013-2-8,32.4,27.8,17.4,29.8,23.9,14.5,97,86,67,30.42,29.88,19,5,22,0.00
2013-2-9,32.7,20.8,6.8,22.8,16.0,4.6,95,82,65,30.49,30.25,16,5,16,0.00
2013-2-10,42.6,32.7,21.7,41.5,28.4,18.3,96,84,72,30.25,29.58,32,9,34,0.20
2013-2-11,45.3,35.7,30.0,43.2,31.7,24.4,96,86,70,29.94,29.53,35,15,36,0.00
2013-2-12,30.4,28.5,27.0,25.5,24.1,22.6,87,83,80,30.10,29.94,21,8,21,0.00
2013-2-13,39.9,30.4,23.9,30.2,25.8,21.7,93,83,66,29.97,29.75,16,4,16,0.00
2013-2-14,40.5,33.8,28.2,34.5,31.5,25.2,98,91,78,29.94,29.65,27,9,28,0.05
2013-2-15,28.2,24.2,19.8,25.2,19.0,14.9,93,81,65,30.20,29.94,19,5,19,0.00
2013-2-16,20.8,17.5,10.6,18.9,14.9,8.8,93,89,78,30.19,30.10,17,3,18,0.00
2013-2-17,24.1,14.7,4.6,14.0,8.9,1.4,92,78,60,30.32,30.19,14,3,15,0.00
2013-2-18,46.0,34.3,19.9,42.3,26.5,12.6,97,73,63,30.21,29.45,24,12,26,0.15
2013-2-19,42.8,24.5,16.3,42.1,22.8,14.0,98,93,88,30.06,29.39,32,14,35,0.11
2013-2-20,21.9,19.0,15.4,17.4,14.7,11.8,93,83,76,30.37,30.06,26,9,26,0.11
2013-2-21,25.9,22.7,20.8,19.9,17.6,15.6,85,80,75,30.44,30.22,24,7,24,0.00
2013-2-22,33.3,26.7,21.6,32.2,24.3,16.5,96,90,80,30.23,29.89,29,9,29,0.00
2013-2-23,30.9,28.0,24.8,27.9,25.0,22.5,94,89,76,29.96,29.88,20,8,22,0.00
2013-2-24,36.3,29.6,21.0,29.3,25.5,19.6,95,85,67,30.20,29.94,16,4,16,0.02
2013-2-25,43.9,29.0,15.8,28.9,23.0,14.2,97,80,51,30.28,30.11,11,2,11,0.00
2013-2-26,34.0,31.2,28.2,32.0,27.0,22.6,98,85,71,30.14,29.54,37,9,37,0.00
2013-2-27,36.0,33.8,32.5,35.4,33.3,32.0,99,98,97,29.64,29.50,9,2,11,0.29
2013-2-28,37.0,33.8,30.9,32.9,30.6,25.9,98,88,80,30.03,29.63,15,5,15,0.29
2013-3-1,30.7,27.1,20.5,26.6,21.0,16.9,88,78,70,30.20,30.03,14,4,15,0.00
2013-3-2,28.8,22.8,14.5,19.2,16.3,11.7,89,76,64,30.22,30.14,13,3,14,0.00
2013-3-3,30.4,22.5,12.4,20.5,16.3,10.0,93,78,60,30.17,30.07,16,3,16,0.00
2013-3-4,34.2,23.0,9.1,22.6,15.7,7.0,94,74,51,30.25,30.12,11,2,11,0.00
2013-3-5,33.8,26.8,21.0,25.5,20.3,14.4,89,76,65,30.17,29.88,25,8,25,0.00
2013-3-6,38.8,33.4,27.1,30.4,28.2,24.3,90,81,70,30.27,29.98,19,5,19,0.00
2013-3-7,36.3,32.2,22.5,30.0,25.5,19.4,92,77,57,30.45,30.25,15,4,16,0.00
2013-3-8,42.1,30.1,17.2,26.6,22.3,15.6,94,74,52,30.56,30.42,10,2,10,0.00
2013-3-9,42.4,36.6,28.2,35.2,28.5,21.9,83,72,64,30.43,29.96,20,8,21,0.00
2013-3-10,53.2,47.0,42.1,45.0,41.0,35.1,98,80,69,29.97,29.69,16,7,19,0.29
2013-3-11,53.8,45.1,34.5,48.9,42.4,33.6,98,91,67,29.69,29.47,27,8,27,0.29
2013-3-12,34.5,31.8,28.6,34.0,28.9,24.8,98,89,74,29.93,29.67,22,8,25,0.08
2013-3-13,30.7,26.9,23.4,27.3,20.7,15.6,95,78,57,30.30,29.92,27,8,27,0.00
2013-3-14,37.9,29.9,20.8,26.4,21.3,17.6,89,71,49,30.34,30.13,17,4,18,0.01
2013-3-15,39.9,35.4,32.4,35.6,32.8,26.6,98,90,79,30.13,29.86,16,5,16,0.08
2013-3-16,34.5,29.4,25.5,33.1,26.3,21.2,98,88,74,30.11,29.78,18,6,19,0.00
2013-3-17,29.1,27.0,24.3,22.8,18.4,13.8,80,70,59,30.31,30.11,21,7,21,0.00
2013-3-18,34.0,28.2,21.7,32.5,25.2,17.6,97,89,77,30.17,29.61,29,8,29,0.00
2013-3-19,29.8,24.0,19.9,27.3,19.6,16.9,93,83,63,30.02,29.68,34,13,34,0.01
2013-3-20,28.2,21.4,14.5,18.3,15.9,12.6,92,80,61,30.05,29.99,23,9,23,0.00
2013-3-21,29.1,23.2,13.8,25.9,19.4,12.0,94,86,74,30.06,29.99,23,7,23,0.00
2013-3-22,34.2,29.2,25.0,26.1,22.6,19.2,88,76,67,30.10,30.04,17,5,17,0.01
2013-3-23,35.1,29.4,22.8,25.5,23.7,20.5,92,79,66,30.19,30.09,8,2,8,0.00
2013-3-24,37.6,30.5,23.2,27.9,24.5,19.9,93,78,59,30.10,29.73,31,7,31,0.00
2013-3-25,38.7,34.2,30.6,28.2,26.7,23.5,82,74,62,30.02,29.68,21,8,25,0.00
2013-3-26,40.1,34.2,30.2,34.2,30.2,27.3,97,85,69,30.21,30.01,18,5,20,0.02
2013-3-27,42.3,36.1,30.7,31.3,28.3,24.8,94,75,53,30.29,30.21,25,8,27,0.12
2013-3-28,48.0,37.0,28.8,30.6,27.4,23.9,91,70,44,30.34,30.29,18,4,18,0.00
2013-3-29,48.4,36.8,25.9,32.5,26.6,23.2,93,70,38,30.34,30.25,18,3,18,0.00
2013-3-30,55.6,39.9,22.3,35.8,27.8,21.0,96,67,31,30.26,29.88,18,4,19,0.00
2013-3-31,48.0,43.8,36.9,42.6,38.1,31.6,96,81,63,29.88,29.67,28,8,28,0.04
2013-4-1,36.9,30.1,26.8,32.5,18.8,13.6,87,63,48,30.16,29.78,27,9,28,0.00
2013-4-2,36.5,29.9,21.4,22.5,18.1,13.1,88,63,41,30.32,30.15,24,7,27,0.00
2013-4-3,45.3,32.4,23.5,22.5,18.8,12.4,87,60,29,30.50,30.31,19,3,19,0.00
2013-4-4,52.0,40.2,24.8,29.3,22.1,18.9,85,52,28,30.38,29.96,19,6,22,0.00
2013-4-5,47.5,39.5,32.4,29.3,24.6,16.9,75,57,31,30.21,29.97,17,5,19,0.00
2013-4-6,58.6,46.8,35.1,42.4,28.1,18.3,74,49,36,30.20,29.65,30,11,34,0.01
2013-4-7,57.9,45.1,34.9,49.1,38.0,30.9,95,76,60,30.02,29.56,33,9,33,0.06
2013-4-8,54.3,41.8,35.4,53.6,39.1,31.1,99,90,80,30.01,29.65,33,10,35,0.48
2013-4-9,48.0,42.9,38.5,47.8,42.6,37.9,99,99,98,30.06,29.85,34,5,34,1.78
2013-4-10,41.9,39.8,37.6,41.7,38.6,34.7,99,95,89,30.02,29.83,27,8,29,0.39
2013-4-11,37.8,36.2,35.1,37.4,35.6,33.6,99,98,86,29.99,29.64,35,13,36,1.31
2013-4-12,41.7,37.2,33.4,38.8,35.7,33.3,99,94,79,29.79,29.58,22,8,26,1.31
2013-4-13,38.7,36.7,34.5,36.1,31.8,28.0,97,83,68,30.01,29.79,25,9,28,0.05
2013-4-14,53.1,40.2,32.5,43.0,35.4,30.0,95,84,65,30.11,29.83,24,7,25,0.08
2013-4-15,64.9,55.4,45.1,57.2,49.3,38.8,96,80,72,29.93,29.79,25,9,28,0.63
2013-4-16,48.9,45.4,41.7,45.9,38.9,32.5,97,79,57,30.25,29.90,21,6,21,0.19
2013-4-17,51.1,45.4,41.4,45.5,38.7,33.3,98,78,62,30.32,29.93,37,9,41,1.25
2013-4-18,63.7,56.1,46.0,62.1,54.8,45.9,100,96,87,29.99,29.38,34,10,34,3.33
2013-4-19,61.0,39.1,33.1,58.5,34.6,28.2,96,84,70,29.79,29.40,37,15,40,0.34
2013-4-20,36.7,32.4,28.0,28.9,22.5,16.0,84,67,46,30.48,29.79,26,8,26,0.00
2013-4-21,51.6,39.0,26.4,33.8,25.8,20.8,87,61,38,30.63,30.41,19,6,25,0.00
2013-4-22,64.8,50.4,36.3,35.2,32.0,26.6,79,53,27,30.42,30.11,17,7,17,0.00
2013-4-23,64.6,51.3,41.0,52.3,43.1,34.2,96,75,50,30.11,29.83,17,7,17,0.45
2013-4-24,43.7,38.4,33.8,39.7,31.7,24.8,96,78,49,30.12,29.85,23,7,25,0.14
2013-4-25,48.0,41.4,35.4,38.5,33.5,29.3,94,74,54,30.34,30.05,25,8,25,0.17
2013-4-26,63.9,50.2,36.3,42.1,35.8,30.4,81,60,39,30.43,30.26,22,7,23,0.17
2013-4-27,70.2,58.3,42.6,47.8,40.3,35.1,84,54,29,30.30,30.03,17,5,17,0.00
2013-4-28,61.5,57.2,51.6,54.5,47.5,38.3,94,71,50,30.03,29.79,14,5,14,0.00
2013-4-29,71.1,59.3,44.6,57.0,51.7,43.9,98,78,55,29.91,29.79,13,3,13,0.00
2013-4-30,78.6,66.5,57.4,62.6,57.6,53.2,89,74,56,29.93,29.82,27,11,27,0.09
2013-5-1,84.4,73.9,62.4,61.7,57.6,54.3,77,59,38,30.12,29.93,21,6,21,0.09
2013-5-2,81.7,69.2,59.2,60.8,56.8,53.2,82,66,42,30.13,30.02,15,4,15,0.00
2013-5-3,80.2,66.9,53.6,59.4,53.0,39.4,93,64,35,30.06,29.92,25,6,25,0.00
2013-5-4,74.5,66.2,58.5,50.5,44.0,34.3,61,46,25,30.02,29.94,23,7,23,0.00
2013-5-5,74.5,64.2,54.9,50.0,42.2,32.2,63,46,24,30.03,29.94,20,6,21,0.00
2013-5-6,74.8,63.8,53.4,48.4,40.8,33.3,69,45,25,30.02,29.92,17,4,17,0.00
2013-5-7,77.9,65.6,49.5,54.5,49.6,45.7,89,58,38,30.02,29.92,18,3,18,0.00
2013-5-8,79.0,67.7,53.1,56.8,52.4,48.6,90,60,36,30.00,29.90,17,3,17,0.00
2013-5-9,80.6,65.3,50.4,59.0,48.8,40.1,89,61,26,29.94,29.83,20,2,20,0.01
2013-5-10,59.2,50.2,44.8,58.1,48.7,43.3,98,95,89,29.90,29.72,16,4,17,0.64
2013-5-11,52.5,45.8,37.9,48.7,42.4,34.3,96,88,63,29.94,29.74,29,7,29,0.10
2013-5-12,45.1,40.2,34.5,36.9,31.5,26.4,93,72,49,30.13,29.92,25,9,28,0.10
2013-5-13,52.2,42.9,29.5,37.2,29.2,22.5,97,63,31,30.21,30.06,17,3,18,0.00
2013-5-14,73.9,61.3,46.9,57.9,44.6,29.5,69,54,45,30.06,29.60,23,7,23,0.00
2013-5-15,76.5,69.8,54.1,60.4,52.5,41.5,84,55,33,29.78,29.52,23,7,23,0.00
2013-5-16,79.2,64.5,48.0,54.0,48.2,42.8,93,60,31,29.96,29.77,16,3,16,0.00
2013-5-17,69.4,61.3,52.3,50.4,45.9,41.0,69,57,41,30.07,29.96,21,7,23,0.00
2013-5-18,82.6,68.2,55.8,63.1,53.3,46.6,79,60,43,30.09,29.93,12,4,14,0.00
2013-5-19,86.4,74.1,58.5,64.4,57.7,47.5,70,57,46,29.96,29.75,17,5,18,0.00
2013-5-20,87.8,78.6,69.6,71.6,65.7,59.2,84,66,39,29.80,29.67,25,8,26,0.00
2013-5-21,81.0,72.8,63.7,67.1,64.9,61.5,95,77,60,29.72,29.62,33,7,36,0.37
2013-5-22,70.2,65.7,59.5,67.3,63.5,58.5,97,93,84,29.66,29.57,19,4,20,0.46
2013-5-23,59.5,51.6,43.9,58.5,49.6,37.9,99,93,77,30.20,29.65,21,5,21,0.24
2013-5-24,57.4,47.3,36.0,46.0,39.8,34.2,94,76,57,30.38,30.20,15,4,15,0.00
2013-5-25,63.9,52.1,38.3,45.7,40.5,36.3,97,69,37,30.39,30.26,12,2,13,0.00
2013-5-26,68.5,57.6,43.3,45.0,40.9,35.2,92,57,31,30.33,30.17,13,4,14,0.00
2013-5-27,58.3,53.9,51.6,51.3,45.8,39.4,95,76,52,30.19,29.92,22,7,24,0.12
2013-5-28,75.7,63.8,52.7,69.1,61.6,51.3,98,93,76,29.93,29.72,18,5,18,0.90
2013-5-29,79.9,70.7,63.1,68.7,65.2,60.8,95,84,61,29.93,29.72,21,6,22,0.15
2013-5-30,85.5,77.5,70.2,72.3,67.8,63.5,87,73,57,29.93,29.81,23,8,25,0.00
2013-5-31,77.9,73.4,66.4,68.9,66.4,63.0,93,79,65,29.87,29.72,31,8,31,0.27
2013-6-1,77.9,71.0,62.2,67.8,64.5,61.7,98,81,64,29.74,29.60,22,8,23,1.02
2013-6-2,63.0,55.5,46.6,62.4,51.4,42.3,98,86,68,30.00,29.60,18,6,21,1.02
2013-6-3,63.9,53.0,39.4,48.2,43.7,38.5,97,73,49,30.10,29.99,16,3,17,0.00
2013-6-4,72.7,60.4,47.1,53.4,48.1,43.5,93,66,44,30.17,30.07,12,3,13,0.00
2013-6-5,70.2,61.8,57.7,52.5,45.8,37.0,82,58,33,30.12,29.95,19,6,21,0.01
2013-6-6,64.6,58.4,54.5,55.9,52.6,49.6,92,81,68,29.97,29.86,15,5,16,0.08
2013-6-7,58.5,53.5,50.7,49.8,48.6,47.8,92,84,72,29.91,29.86,11,2,11,0.00
2013-6-10,69.6,66.7,63.3,67.1,65.1,62.2,96,94,91,29.73,29.69,9,4,11,0.15
2013-6-14,77.4,70.5,57.2,58.8,56.0,50.5,93,62,41,30.15,29.85,14,3,14,0.00
2013-6-15,73.8,65.4,54.9,64.0,59.8,53.6,97,83,67,30.09,29.88,18,4,20,0.01
2013-6-16,78.4,69.9,63.7,66.6,63.2,58.1,96,81,53,29.90,29.80,23,6,26,0.51
2013-6-17,82.8,71.9,59.2,65.8,59.9,54.9,96,69,39,29.94,29.85,16,4,17,0.00
2013-6-18,70.3,63.7,56.8,60.4,52.6,41.7,93,70,38,30.10,29.91,18,5,20,0.00
2013-6-19,76.8,63.4,48.4,53.4,46.7,42.6,86,57,33,30.20,30.09,15,3,18,0.00
2013-6-20,84.6,69.3,52.7,60.4,54.2,42.3,94,63,30,30.21,30.12,10,2,13,0.00
2013-6-21,84.0,75.8,66.7,66.9,63.4,57.7,82,66,51,30.17,29.96,22,6,24,0.00
2013-6-22,86.0,76.7,69.3,72.7,68.5,65.5,90,77,54,30.10,29.96,15,3,15,0.00
2013-6-23,88.5,79.2,69.4,72.1,68.5,65.8,91,71,49,30.03,29.92,18,6,21,0.00
2013-6-24,85.3,77.3,70.5,71.1,68.2,64.2,88,74,56,30.04,29.85,19,5,20,0.00
2013-6-25,81.3,72.7,66.6,73.0,68.0,64.0,96,86,70,29.99,29.81,19,4,21,0.36
2013-6-26,83.5,74.8,66.7,72.0,68.7,65.1,96,82,60,29.87,29.72,13,4,15,0.00
2013-6-27,82.8,74.2,67.3,73.6,69.6,66.2,98,86,61,29.75,29.65,19,4,19,0.00
2013-6-28,78.3,70.8,64.8,68.5,64.8,62.1,97,82,64,29.66,29.55,21,4,21,0.00
2013-6-29,72.3,67.5,62.1,65.3,62.7,60.4,97,85,74,29.76,29.57,16,3,19,0.01
2013-6-30,79.0,71.1,63.1,64.4,59.5,50.4,86,68,48,29.99,29.76,15,4,18,0.01
2013-7-1,75.7,67.1,58.6,56.7,50.1,42.4,68,55,43,30.11,29.99,28,7,28,0.00
2013-7-2,66.6,62.1,55.4,62.6,55.5,42.1,95,81,45,30.11,30.05,13,3,16,0.32
2013-7-3,80.6,68.1,60.4,68.5,61.9,54.3,94,81,62,30.10,30.02,14,4,19,0.00
2013-7-4,79.2,70.4,62.1,65.5,62.8,57.9,98,79,51,30.14,30.06,11,3,13,0.00
2013-7-5,85.1,74.7,64.0,67.1,63.9,59.9,94,71,45,30.12,30.03,11,2,12,0.00
2013-7-6,84.9,76.3,68.5,70.9,67.9,65.7,92,76,56,30.09,29.97,10,3,11,0.00
2013-7-7,84.6,76.2,70.9,72.1,69.5,67.8,94,81,59,30.02,29.94,14,4,14,0.00
2013-7-8,79.0,75.4,72.3,73.2,71.1,69.4,95,87,75,30.02,29.94,20,5,21,0.01
2013-7-9,85.5,75.3,67.8,76.6,71.3,67.1,98,88,67,29.99,29.85,22,2,26,0.24
2013-7-10,80.8,75.6,61.3,75.6,67.6,56.3,96,78,53,29.98,29.81,21,6,22,0.24
2013-7-11,81.7,68.4,55.9,61.2,57.2,49.5,97,71,37,30.08,29.98,15,2,17,0.00
2013-7-12,81.0,70.0,58.5,60.6,57.7,50.9,92,68,38,30.18,30.07,14,4,15,0.00
2013-7-13,84.9,74.3,62.6,64.8,60.7,56.3,92,65,42,30.19,30.13,14,4,16,0.00
2013-7-14,90.7,78.5,64.0,71.4,66.9,61.3,93,69,48,30.24,30.18,10,3,12,0.00
2013-7-15,93.9,80.9,70.2,76.1,72.8,68.5,99,79,50,30.28,30.20,10,2,15,0.27
2013-7-16,89.8,81.8,73.0,76.8,74.1,71.2,98,79,55,30.30,30.23,14,4,17,0.00
2013-7-17,90.9,82.5,74.5,77.9,74.3,71.6,93,78,58,30.28,30.15,15,4,16,0.00
2013-7-18,92.1,84.0,74.5,77.5,74.0,71.1,94,74,53,30.16,29.91,18,4,19,0.00
2013-7-19,92.3,83.9,79.3,75.0,73.8,70.3,86,73,50,29.93,29.73,29,9,29,0.00
2013-7-23,77.7,71.6,58.6,72.0,60.8,49.1,89,69,56,29.94,29.69,22,8,24,0.27
2013-7-24,73.2,62.0,48.9,54.7,50.7,47.3,95,69,44,30.07,29.94,13,2,17,0.00
2013-7-25,77.2,65.6,54.7,58.6,55.3,52.3,94,72,44,30.12,30.05,11,3,13,0.00
2013-7-26,75.2,66.9,61.5,64.4,60.5,55.2,95,80,60,30.07,29.88,20,5,21,0.23
2013-7-27,68.0,62.5,56.1,63.5,58.3,50.9,98,87,72,29.89,29.82,19,5,20,0.23
2013-7-28,64.2,57.4,53.6,56.1,53.9,50.9,99,89,67,29.99,29.82,19,5,19,0.40
2013-7-29,68.0,60.8,55.0,57.9,56.0,53.4,97,85,67,30.22,29.97,13,4,13,0.11
2013-7-30,79.3,65.7,50.7,65.1,57.3,49.8,98,77,51,30.26,30.12,10,2,12,0.03
2013-7-31,70.2,66.2,63.3,67.1,63.8,60.6,96,92,84,30.12,29.93,9,2,10,0.19
2013-8-1,75.6,67.8,60.1,66.2,60.4,53.2,98,80,48,29.96,29.92,20,5,23,0.01
2013-8-2,72.9,65.0,58.1,67.3,61.4,54.9,95,88,81,29.95,29.85,18,4,18,0.02
2013-8-3,75.7,66.8,57.7,65.1,58.0,49.6,99,76,45,30.09,29.93,19,3,19,0.01
2013-8-4,73.2,62.8,53.2,58.5,53.5,49.6,96,74,48,30.22,30.09,15,3,16,0.00
2013-8-5,71.4,61.1,49.5,61.9,55.2,48.4,97,82,61,30.14,29.95,12,3,13,0.00
2013-8-6,77.2,69.7,64.6,69.8,65.8,61.7,93,88,77,29.96,29.86,12,5,13,0.03
2013-8-7,80.8,72.1,64.0,73.2,67.8,62.2,96,87,75,29.94,29.80,17,5,20,0.56
2013-8-8,76.8,67.0,58.8,62.4,57.5,52.2,94,74,44,30.05,29.94,13,3,16,0.56
2013-8-9,78.3,68.0,54.1,64.0,59.3,52.5,94,75,51,30.03,29.97,16,3,17,0.00
2013-8-10,78.1,69.0,60.3,62.2,57.9,52.2,93,70,43,30.15,30.03,10,2,11,0.00
2013-8-11,76.5,67.4,58.5,62.1,58.2,55.2,95,74,50,30.14,30.06,11,2,13,0.00
2013-8-12,73.9,67.5,64.2,69.8,65.0,59.2,99,92,76,30.06,29.86,8,2,9,1.87
2013-8-13,66.6,60.6,53.4,63.1,51.9,47.1,95,74,51,30.14,29.91,17,5,19,0.00
2013-8-14,68.7,57.3,45.1,54.5,49.6,44.1,97,78,49,30.24,30.14,13,2,15,0.00
2013-8-15,73.2,60.7,48.7,59.9,53.3,47.8,97,79,48,30.20,30.12,17,3,18,0.00
2013-8-16,79.7,66.0,53.4,61.5,56.0,52.3,97,74,44,30.22,30.15,8,2,9,0.01
2013-8-17,79.5,67.4,53.8,62.4,56.6,52.5,98,72,42,30.27,30.19,13,2,13,0.00
2013-8-18,81.3,68.4,54.1,64.6,58.4,53.1,97,74,44,30.24,30.12,17,2,22,0.00
2013-8-19,80.2,68.4,54.7,63.9,59.8,53.6,97,76,50,30.14,30.05,15,2,17,0.00
2013-8-20,83.5,72.9,61.9,69.4,64.7,59.2,93,77,49,30.14,30.06,14,4,15,0.00
2013-8-21,86.2,76.5,66.6,70.7,66.5,62.4,91,73,48,30.10,29.96,15,5,16,0.00
2013-8-22,78.4,70.0,63.7,70.9,67.5,62.6,98,92,72,30.09,29.96,26,2,32,0.23
2013-8-23,81.1,68.8,55.9,65.5,56.7,50.5,98,70,36,30.21,30.09,13,2,14,0.23
2013-8-24,82.6,70.6,58.6,63.1,58.6,54.5,92,69,43,30.31,30.19,12,4,12,0.00
2013-8-25,85.8,74.4,63.1,68.9,63.7,58.1,86,70,55,30.28,30.13,18,6,21,0.00
2013-8-26,83.1,75.8,67.8,73.4,68.5,63.1,87,78,71,30.16,29.97,18,5,20,0.00
2013-8-27,90.1,80.9,73.8,78.3,73.4,71.2,97,79,57,29.99,29.78,19,6,22,0.06
2013-8-28,83.1,75.9,69.8,74.8,72.5,68.5,98,90,69,30.02,29.78,13,2,16,0.54
2013-8-29,86.5,75.8,67.6,71.8,68.8,66.2,98,81,55,30.09,29.99,11,2,11,0.00
2013-8-30,89.1,77.3,69.1,74.5,70.6,66.9,96,81,60,29.99,29.73,19,5,21,0.00
2013-8-31,79.5,71.9,64.6,69.6,66.2,63.5,97,83,66,29.86,29.78,12,3,13,0.00
2013-9-1,82.9,72.6,65.5,72.9,68.2,64.0,96,87,68,29.85,29.71,13,3,13,0.00
2013-9-2,70.9,65.7,60.1,68.4,60.0,52.5,96,82,68,29.98,29.75,16,4,20,0.00
2013-9-3,72.1,63.3,54.1,57.7,55.0,50.9,93,75,58,30.08,29.97,17,3,17,0.00
2013-9-4,77.5,65.8,54.1,64.2,59.0,52.7,97,81,52,30.13,30.04,19,4,20,0.01
2013-9-5,72.7,63.0,53.8,61.9,50.3,41.7,91,66,36,30.29,30.13,13,3,15,0.00
2013-9-6,80.1,65.4,52.2,58.1,52.3,47.5,89,65,38,30.29,30.04,14,4,16,0.00
2013-9-7,80.2,71.2,65.3,69.1,63.5,56.8,90,77,67,30.05,29.91,15,4,15,0.00
2013-9-8,75.7,68.9,64.6,65.8,62.1,57.6,97,80,56,30.09,29.96,17,5,19,0.00
2013-9-9,84.4,71.2,59.7,74.1,66.2,57.4,99,85,68,30.04,29.83,18,6,19,2.26
2013-9-10,91.2,83.3,74.3,73.8,69.2,65.3,89,64,44,29.98,29.86,23,7,24,0.00
2013-9-11,85.8,76.8,70.5,72.0,68.5,63.3,93,77,50,30.03,29.95,16,4,17,0.02
2013-9-12,75.0,67.9,57.0,67.6,59.0,49.1,98,75,49,30.06,29.91,19,4,20,0.01
2013-9-13,63.0,54.8,46.0,49.1,44.8,39.7,91,71,43,30.17,30.05,17,4,20,0.01
2013-9-14,67.3,54.5,41.5,53.2,46.8,40.5,97,77,48,30.24,30.09,13,3,16,0.00
2013-9-15,58.8,56.5,53.8,56.8,51.5,44.2,97,84,68,30.19,30.07,11,3,11,0.09
2013-9-16,61.5,54.7,48.6,55.2,49.3,44.4,97,83,61,30.40,30.19,13,4,14,0.09
2013-9-17,67.5,54.2,41.5,52.7,46.4,39.9,96,77,48,30.44,30.22,13,4,10,0.00
2013-9-18,79.0,65.3,54.0,59.2,54.5,49.5,87,70,48,30.22,29.99,16,5,0,0.00
2013-9-19,74.8,68.8,63.3,68.4,64.1,56.8,96,85,68,30.01,29.83,18,6,0,0.00
2013-9-20,73.8,70.2,63.1,70.7,66.8,58.6,96,89,83,29.86,29.74,15,6,0,0.06
2013-9-21,63.1,59.0,53.8,58.6,52.4,47.1,95,79,60,29.94,29.73,17,5,0,0.00
2013-9-22,55.4,51.8,45.3,48.0,45.0,42.6,95,78,65,30.12,29.94,12,2,0,0.00
2013-9-23,63.0,50.9,40.6,48.6,43.7,38.8,95,78,57,30.22,30.12,15,4,0,0.00
2013-10-3,75.0,71.4,68.7,68.5,66.9,65.7,92,86,77,30.00,29.70,13,5,17,0.01
2013-10-4,77.2,70.1,65.1,69.1,66.0,63.3,95,88,72,29.99,29.89,13,3,16,0.01
2013-10-5,75.7,69.5,64.8,72.0,67.4,64.4,99,93,83,30.00,29.77,17,6,17,1.15
2013-10-6,70.2,60.1,51.4,68.0,57.7,48.6,97,92,71,29.79,29.68,16,5,18,0.26
2013-10-7,59.4,51.8,46.6,53.4,48.0,44.6,99,88,66,30.12,29.70,20,5,22,0.20
2013-10-8,71.8,57.5,44.8,53.8,48.3,43.5,97,74,49,30.26,30.12,16,6,19,0.00
2013-10-9,70.2,59.0,46.8,52.0,48.3,44.4,94,69,44,30.31,30.19,12,4,13,0.00
2013-10-10,72.5,59.0,45.1,55.4,48.6,43.3,96,71,43,30.22,30.11,10,3,11,0.00
2013-10-11,70.9,58.9,47.3,52.3,47.3,39.9,83,67,34,30.16,30.04,12,4,14,0.00
2013-10-12,77.4,64.2,53.1,62.8,54.3,45.3,97,72,46,30.11,29.99,19,6,19,0.09
2013-10-13,61.3,53.5,43.5,58.6,47.3,42.8,97,81,58,30.40,30.11,17,3,18,0.01
2013-10-14,61.0,50.1,40.3,44.8,41.0,36.5,97,74,42,30.45,30.26,14,3,18,0.00
2013-10-15,64.6,54.7,45.1,61.0,51.5,42.6,97,89,77,30.26,29.80,17,7,22,0.21
2013-10-16,62.2,52.6,50.4,60.8,50.2,46.9,98,92,82,29.91,29.80,16,6,19,0.21
2013-10-17,51.6,49.5,46.0,51.1,48.7,44.4,99,97,93,29.90,29.76,19,4,19,0.46
2013-10-18,58.6,48.3,41.9,51.1,44.7,40.3,97,88,69,29.93,29.86,23,6,24,0.00
2013-10-19,51.8,45.7,41.9,43.9,41.0,34.7,93,84,55,29.92,29.77,19,4,21,0.23
2013-10-20,57.9,48.4,37.9,49.1,42.5,36.9,98,81,56,29.93,29.75,24,5,28,0.12
2013-10-21,54.9,47.8,40.5,50.2,42.0,28.4,95,80,62,29.93,29.79,22,8,25,0.26
2013-10-22,46.9,41.2,35.4,36.9,32.7,27.0,92,72,60,29.96,29.91,18,6,18,0.01
2013-10-23,42.1,36.9,33.6,37.8,34.3,32.2,96,90,70,30.02,29.89,18,4,19,0.03
2013-10-24,41.9,36.1,33.4,38.5,34.2,32.2,98,93,72,30.27,30.00,15,4,17,0.14
2013-10-25,45.1,39.6,34.3,38.1,33.7,29.7,97,81,55,30.40,30.07,23,6,25,0.01
2013-10-26,51.8,46.9,41.2,43.2,37.1,33.3,97,69,56,30.07,29.81,35,10,36,0.03
2013-10-27,51.1,43.3,36.1,37.9,35.0,32.9,90,73,54,30.09,30.01,20,4,21,0.00
2013-10-28,47.5,41.1,34.0,38.7,35.5,31.8,95,80,70,30.45,30.08,18,4,18,0.00
2013-10-29,52.2,43.1,38.7,42.1,35.3,30.6,87,74,66,30.47,30.25,13,5,16,0.00
2013-10-30,63.3,51.5,39.4,56.1,46.0,36.3,98,83,59,30.25,29.88,15,5,16,0.26
2013-10-31,61.9,59.5,54.3,61.5,59.2,54.0,100,99,98,29.89,29.11,23,8,26,1.19
2013-11-1,54.3,46.8,45.0,54.0,44.8,41.5,99,93,83,29.70,29.19,30,9,33,0.29
2013-11-2,48.0,44.8,42.4,45.3,41.4,37.4,98,88,70,30.14,29.69,14,3,14,0.08
2013-11-3,48.4,42.0,35.8,39.9,35.2,33.3,92,78,59,30.43,30.14,15,5,15,0.00
2013-11-4,51.6,44.8,38.1,42.1,35.5,33.1,87,71,51,30.43,30.25,23,10,27,0.00
2013-11-5,57.7,52.8,49.5,49.1,46.3,41.9,87,79,70,30.34,30.07,24,7,24,0.00
2013-11-6,56.1,49.8,41.2,55.0,48.2,39.4,99,95,71,30.08,29.76,27,9,28,1.08
2013-11-7,42.1,38.3,33.4,39.6,32.8,29.8,96,81,67,30.22,30.06,18,7,23,0.05
2013-11-8,44.4,38.4,32.5,34.7,32.0,28.2,97,79,55,30.36,30.13,13,4,14,0.00
2013-11-9,51.8,47.6,40.8,44.2,38.7,32.5,78,71,62,30.13,29.85,28,11,32,0.00
2013-11-10,46.0,41.7,34.7,34.2,32.6,29.8,86,70,59,30.32,29.98,27,10,30,0.00
2013-11-11,43.2,35.8,26.8,39.6,32.1,22.1,97,87,79,30.46,30.09,18,6,18,0.21
2013-11-12,34.2,27.3,21.2,25.3,21.1,17.8,92,78,56,30.68,30.46,21,4,23,0.00
2013-11-13,40.8,31.0,20.8,27.0,22.5,18.7,93,72,47,30.62,30.22,28,8,28,0.00
2013-11-14,47.5,39.3,31.6,30.4,27.4,23.7,74,63,49,30.23,30.00,25,9,25,0.00
2013-11-15,49.6,43.3,37.8,35.4,31.7,28.6,74,64,51,30.06,30.00,15,6,16,0.00
2013-11-16,55.8,48.7,39.6,55.2,44.2,33.1,99,84,72,30.06,29.69,25,10,29,0.33
2013-11-17,64.0,55.5,42.3,61.3,54.5,40.6,99,96,84,29.69,29.18,48,13,52,1.18
2013-11-18,45.9,38.5,34.9,41.0,31.4,25.2,84,75,66,30.23,29.57,28,12,33,1.18
2013-11-19,41.5,35.3,30.0,27.1,25.3,23.7,79,67,50,30.44,30.23,17,3,17,0.00
2013-11-20,44.1,36.8,30.4,34.5,27.2,24.3,81,69,47,30.44,30.23,22,7,22,0.00
2013-11-21,51.3,45.0,38.8,44.6,40.8,34.5,97,85,75,30.28,30.20,15,1,16,0.13
2013-11-22,45.3,37.3,27.1,44.8,33.8,24.4,98,87,72,30.47,30.19,18,5,24,0.01
2013-11-23,30.7,24.4,17.4,26.1,16.6,6.4,92,72,52,30.67,30.37,25,8,27,0.00
2013-11-24,24.6,20.1,16.9,19.0,13.3,8.1,87,75,57,30.73,30.46,20,5,22,0.00
2013-11-25,33.3,25.8,19.9,31.1,19.1,7.3,95,76,56,30.46,30.14,27,10,29,0.00
2013-11-26,33.4,30.3,25.2,30.0,26.2,17.4,93,85,70,30.14,30.03,18,6,20,0.00
2013-11-27,29.5,24.0,19.4,20.1,16.2,12.7,83,72,54,30.30,30.10,20,6,23,0.00
2013-11-28,27.1,24.4,19.6,22.6,18.9,14.5,92,80,66,30.53,30.30,17,4,18,0.00
2013-11-29,34.0,26.7,18.9,25.2,22.1,17.2,95,83,64,30.74,30.53,18,3,18,0.00
2013-11-30,45.9,36.9,28.9,33.1,28.2,22.1,81,71,59,30.56,30.11,19,7,19,0.00
2013-12-1,42.4,37.1,31.8,34.0,31.1,28.0,92,79,60,30.15,30.06,12,2,13,0.00
2013-12-2,39.7,34.2,30.0,31.5,28.3,24.1,94,80,62,30.06,29.92,12,4,12,0.00
2013-12-3,36.3,34.3,32.0,36.1,31.8,24.3,99,91,70,29.94,29.83,18,6,20,0.31
2013-12-4,57.0,45.6,36.3,55.8,45.2,36.1,99,98,87,29.88,29.58,22,7,28,0.31
2013-12-5,55.9,36.1,28.0,52.3,30.3,20.7,88,79,72,30.24,29.59,26,12,31,0.00
2013-12-6,27.9,23.1,19.9,21.0,17.7,15.4,90,80,74,30.52,30.24,16,5,18,0.00
2013-12-7,21.0,17.4,11.3,17.8,14.4,9.0,93,88,80,30.73,30.52,14,4,14,0.00
2013-12-8,21.0,17.5,12.0,19.6,14.3,9.7,94,87,71,30.69,30.06,18,5,19,0.00
2013-12-9,28.6,23.6,16.3,27.1,19.8,10.4,95,85,71,30.23,29.96,27,10,32,0.00
2013-12-10,22.5,16.9,9.7,18.9,12.6,0.7,93,83,65,30.24,30.00,25,9,26,0.00
2013-12-11,20.5,16.7,12.0,18.7,14.1,9.7,94,89,81,30.48,30.23,17,6,20,0.00
2013-12-12,25.2,15.6,10.6,21.9,13.0,7.7,94,89,84,30.48,30.21,19,6,22,0.00
2013-12-13,27.5,24.0,20.8,23.0,20.0,16.7,91,85,76,30.27,30.17,20,4,22,0.00
2013-12-14,20.8,19.1,16.2,18.3,16.7,13.8,93,90,84,30.25,29.93,22,8,24,0.00
2013-12-15,24.3,19.0,15.1,22.1,15.8,10.8,94,87,75,30.09,29.86,23,7,25,0.00
2013-12-16,22.3,14.7,6.1,14.7,10.6,3.6,92,84,66,30.20,30.04,10,3,10,0.00
2013-12-17,31.5,25.5,17.1,28.6,23.2,14.4,96,91,79,30.04,29.88,18,6,23,0.00
2013-12-18,30.0,27.7,24.3,26.2,20.5,14.9,93,75,62,30.15,29.85,18,8,22,0.00
2013-12-19,40.6,35.1,27.1,36.0,31.7,18.3,96,87,69,29.97,29.82,16,4,16,0.01
2013-12-20,33.1,32.1,30.6,32.0,31.1,29.3,97,96,95,29.87,29.75,14,4,16,0.01
2013-12-21,32.7,31.8,30.2,32.2,31.1,28.6,98,97,94,29.87,29.68,14,3,16,0.00
2013-12-22,32.2,31.3,30.4,31.1,30.1,28.9,96,95,94,29.71,29.55,12,4,14,0.00
2013-12-27,40.5,34.6,27.5,34.5,31.4,26.2,96,88,75,30.32,30.08,21,7,22,0.24
2013-12-28,46.6,40.5,33.3,35.4,34.1,31.6,95,79,64,30.12,29.88,24,8,27,0.21
2013-12-29,42.1,31.7,18.7,34.2,26.1,10.9,94,80,70,30.13,29.76,20,7,21,0.00
2013-12-30,19.4,16.7,14.5,13.8,10.8,6.4,91,78,67,30.35,30.13,14,4,16,0.00
2013-12-31,18.0,15.3,13.3,16.0,13.2,11.1,93,91,88,30.42,30.17,18,5,19,0.00
2014-1-1,14.4,11.3,10.0,12.4,7.5,3.9,92,84,71,30.48,30.34,16,6,17,0.00
2014-1-2,14.2,10.6,1.8,9.5,4.7,-3.5,87,77,62,30.46,30.27,20,6,23,0.00